createdAt,value
2022-09-04T00:02:23.378Z,101336.72
2022-09-04T00:07:49.092Z,101333.09
2022-09-04T00:12:56.095Z,101345.50
2022-09-04T00:18:16.279Z,101344.63
2022-09-04T00:23:30.986Z,101359.34
2022-09-04T00:28:45.359Z,101352.94
2022-09-04T00:33:58.805Z,101353.81
2022-09-04T00:39:13.706Z,101361.03
2022-09-04T00:44:42.136Z,101366.34
2022-09-04T00:49:50.840Z,101372.34
2022-09-04T00:54:55.215Z,101374.69
2022-09-04T01:00:15.181Z,101387.03
2022-09-04T01:05:27.425Z,101382.53
2022-09-04T01:10:29.032Z,101386.59
2022-09-04T01:15:44.844Z,101397.03
2022-09-04T01:21:30.762Z,101392.16
2022-09-04T01:26:58.887Z,101406.63
2022-09-04T01:32:35.567Z,101408.75
2022-09-04T01:37:58.517Z,101404.50
2022-09-04T01:43:06.159Z,101402.78
2022-09-04T01:48:10.442Z,101408.94
2022-09-04T01:53:18.581Z,101409.16
2022-09-04T01:58:38.457Z,101417.44
2022-09-04T02:03:47.146Z,101408.91
2022-09-04T02:09:16.384Z,101421.00
2022-09-04T02:14:32.488Z,101413.78
2022-09-04T02:20:05.477Z,101422.94
2022-09-04T02:25:21.302Z,101418.88
2022-09-04T02:30:23.154Z,101422.53
2022-09-04T02:36:02.724Z,101422.72
2022-09-04T02:41:38.784Z,101419.94
2022-09-04T02:46:43.227Z,101422.72
2022-09-04T02:51:45.486Z,101420.97
2022-09-04T02:57:39.366Z,101418.38
2022-09-04T03:02:55.599Z,101423.25
2022-09-04T03:08:15.553Z,101429.44
2022-09-04T03:13:47.645Z,101449.84
2022-09-04T03:19:19.837Z,101449.84
2022-09-04T03:25:08.837Z,101452.41
2022-09-04T03:30:12.691Z,101460.53
2022-09-04T03:35:49.572Z,101461.16
2022-09-04T03:41:06.625Z,101470.13
2022-09-04T03:46:26.733Z,101471.81
2022-09-04T03:51:52.517Z,101473.72
2022-09-04T03:57:03.090Z,101482.88
2022-09-04T04:02:18.664Z,101483.94
2022-09-04T04:07:47.904Z,101489.41
2022-09-04T04:12:58.455Z,101490.03
2022-09-04T04:18:36.188Z,101504.53
2022-09-04T04:23:58.035Z,101494.94
2022-09-04T04:29:14.763Z,101505.94
2022-09-04T04:34:37.511Z,101507.16
2022-09-04T04:39:54.872Z,101514.38
2022-09-04T04:45:52.822Z,101520.34
2022-09-04T04:51:05.269Z,101515.47
2022-09-04T04:56:15.284Z,101522.66
2022-09-04T05:01:40.266Z,101526.63
2022-09-04T05:06:58.353Z,101535.75
2022-09-04T05:12:10.974Z,101543.66
2022-09-04T05:17:45.885Z,101548.31
2022-09-04T05:22:56.431Z,101556.25
2022-09-04T05:28:22.760Z,101561.19
2022-09-04T05:33:30.440Z,101570.38
2022-09-04T05:39:07.805Z,101578.66
2022-09-04T05:44:33.536Z,101583.56
2022-09-04T05:49:50.192Z,101591.22
2022-09-04T05:54:57.733Z,101599.28
2022-09-04T06:00:09.809Z,101595.91
2022-09-04T06:05:36.593Z,101614.00
2022-09-04T06:10:52.854Z,101601.91
2022-09-04T06:16:16.176Z,101624.63
2022-09-04T06:21:23.324Z,101618.50
2022-09-04T06:26:37.752Z,101614.69
2022-09-04T06:31:48.573Z,101615.19
2022-09-04T06:37:02.864Z,101625.47
2022-09-04T06:42:23.846Z,101628.94
2022-09-04T06:47:50.033Z,101637.22
2022-09-04T06:53:01.021Z,101635.34
2022-09-04T06:58:45.649Z,101632.03
2022-09-04T07:04:02.100Z,101635.28
2022-09-04T07:09:20.825Z,101641.44
2022-09-04T07:14:35.888Z,101647.63
2022-09-04T07:20:06.020Z,101651.72
2022-09-04T07:25:13.764Z,101662.56
2022-09-04T07:30:17.403Z,101662.41
2022-09-04T07:35:21.459Z,101668.41
2022-09-04T07:40:34.657Z,101665.84
2022-09-04T07:45:51.527Z,101665.03
2022-09-04T07:51:03.455Z,101674.59
2022-09-04T07:56:35.124Z,101675.69
2022-09-04T08:02:14.127Z,101677.59
2022-09-04T08:07:28.564Z,101684.03
2022-09-04T08:12:57.090Z,101686.41
2022-09-04T08:18:35.184Z,101701.09
2022-09-04T08:23:51.615Z,101708.81
2022-09-04T08:29:20.228Z,101708.81
2022-09-04T08:34:34.119Z,101717.38
2022-09-04T08:39:48.345Z,101725.69
2022-09-04T08:45:11.854Z,101735.31
2022-09-04T08:50:39.728Z,101732.94
2022-09-04T08:55:55.917Z,101743.00
2022-09-04T09:01:30.729Z,101734.22
2022-09-04T09:07:06.048Z,101735.69
2022-09-04T09:12:40.271Z,101740.00
2022-09-04T09:18:02.287Z,101743.59
2022-09-04T09:23:28.517Z,101739.53
2022-09-04T09:28:48.521Z,101732.94
2022-09-04T09:34:28.048Z,101737.84
2022-09-04T09:40:01.280Z,101742.09
2022-09-04T09:45:27.478Z,101735.19
2022-09-04T09:50:48.689Z,101728.94
2022-09-04T09:56:11.333Z,101733.78
2022-09-04T10:01:46.719Z,101737.94
2022-09-04T10:07:19.737Z,101744.28
2022-09-04T10:12:42.733Z,101746.09
2022-09-04T10:18:14.820Z,101746.91
2022-09-04T10:23:31.515Z,101754.59
2022-09-04T10:29:10.050Z,101749.13
2022-09-04T10:34:19.183Z,101754.66
2022-09-04T10:40:03.490Z,101762.94
2022-09-04T10:45:15.902Z,101754.94
2022-09-04T10:50:30.933Z,101770.53
2022-09-04T10:55:47.628Z,101770.03
2022-09-04T11:01:05.891Z,101755.78
2022-09-04T11:06:28.805Z,101759.63
2022-09-04T11:11:52.789Z,101760.38
2022-09-04T11:17:30.489Z,101753.81
2022-09-04T11:22:55.645Z,101756.09
2022-09-04T11:28:20.421Z,101758.13
2022-09-04T11:33:54.085Z,101753.03
2022-09-04T11:39:26.101Z,101760.84
2022-09-04T11:45:05.724Z,101752.81
2022-09-04T11:51:01.603Z,101752.13
2022-09-04T11:56:20.823Z,101754.94
2022-09-04T12:01:31.087Z,101759.72
2022-09-04T12:06:39.432Z,101759.13
2022-09-04T12:12:00.936Z,101760.38
2022-09-04T12:17:31.393Z,101764.88
2022-09-04T12:23:17.900Z,101763.81
2022-09-04T12:28:57.288Z,101765.69
2022-09-04T12:34:24.779Z,101767.78
2022-09-04T12:39:39.791Z,101772.41
2022-09-04T12:44:57.931Z,101777.19
2022-09-04T12:50:10.094Z,101776.59
2022-09-04T12:55:38.344Z,101778.19
2022-09-04T13:00:55.924Z,101774.66
2022-09-04T13:06:18.721Z,101782.06
2022-09-04T13:11:20.168Z,101780.31
2022-09-04T13:16:46.413Z,101781.88
2022-09-04T13:22:05.950Z,101773.41
2022-09-04T13:27:21.255Z,101775.56
2022-09-04T13:33:16.225Z,101774.25
2022-09-04T13:38:55.339Z,101776.22
2022-09-04T13:44:15.281Z,101769.41
2022-09-04T13:49:25.725Z,101780.44
2022-09-04T13:54:36.657Z,101775.69
2022-09-04T13:59:38.402Z,101769.53
2022-09-04T14:04:53.646Z,101777.06
2022-09-04T14:10:00.514Z,101780.44
2022-09-04T14:15:32.789Z,101787.97
2022-09-04T14:20:41.602Z,101797.66
2022-09-04T14:25:54.760Z,101788.19
2022-09-04T14:31:14.806Z,101790.81
2022-09-04T14:36:26.564Z,101796.56
2022-09-04T14:41:46.277Z,101790.25
2022-09-04T14:46:51.526Z,101781.03
2022-09-04T14:51:56.580Z,101782.72
2022-09-04T14:57:11.398Z,101782.63
2022-09-04T15:02:21.149Z,101781.78
2022-09-04T15:07:29.124Z,101775.31
2022-09-04T15:12:36.362Z,101778.41
2022-09-04T15:17:46.896Z,101779.84
2022-09-04T15:23:19.438Z,101776.78
2022-09-04T15:28:52.071Z,101775.22
2022-09-04T15:34:01.398Z,101750.94
2022-09-04T15:39:06.617Z,101768.06
2022-09-04T15:44:33.596Z,101768.78
2022-09-04T15:49:51.399Z,101765.50
2022-09-04T15:55:04.147Z,101769.13
2022-09-04T16:00:14.450Z,101771.72
2022-09-04T16:05:28.140Z,101768.19
2022-09-04T16:11:11.708Z,101776.91
2022-09-04T16:16:22.877Z,101779.09
2022-09-04T16:21:32.349Z,101770.47
2022-09-04T16:26:34.112Z,101769.63
2022-09-04T16:31:36.813Z,101770.13
2022-09-04T16:36:45.648Z,101770.88
2022-09-04T16:41:52.409Z,101765.88
2022-09-04T16:47:04.699Z,101771.56
2022-09-04T16:52:34.397Z,101765.84
2022-09-04T16:58:07.234Z,101765.69
2022-09-04T17:03:21.583Z,101762.19
2022-09-04T17:08:39.341Z,101768.22
2022-09-04T17:13:58.722Z,101769.81
2022-09-04T17:19:14.202Z,101767.97
2022-09-04T17:29:13.981Z,101770.63
2022-09-04T17:29:52.944Z,101776.63
2022-09-04T17:39:57.338Z,101786.03
2022-09-04T17:46:27.594Z,101783.06
2022-09-04T17:51:34.784Z,101781.53
2022-09-04T17:56:51.686Z,101784.28
2022-09-04T18:02:01.075Z,101791.25
2022-09-04T18:07:51.017Z,101797.06
2022-09-04T18:13:36.521Z,101794.91
2022-09-04T18:18:49.448Z,101795.88
2022-09-04T18:23:57.632Z,101795.53
2022-09-04T18:29:25.057Z,101807.59
2022-09-04T18:37:22.281Z,101812.41
2022-09-04T18:40:43.106Z,101824.25
2022-09-04T18:50:42.792Z,101817.44
2022-09-04T18:51:24.828Z,101827.09
2022-09-04T18:56:35.304Z,101829.28
2022-09-04T19:01:43.231Z,101834.00
2022-09-04T19:07:06.863Z,101836.00
2022-09-04T19:12:13.754Z,101841.41
2022-09-04T19:17:18.366Z,101844.91
2022-09-04T19:22:34.189Z,101843.22
2022-09-04T19:27:55.032Z,101843.69
2022-09-04T19:33:23.406Z,101846.72
2022-09-04T19:42:32.167Z,101846.31
2022-09-04T19:46:03.655Z,101845.25
2022-09-04T19:53:21.785Z,101855.91
2022-09-04T19:55:24.889Z,101849.72
2022-09-04T20:00:31.201Z,101845.69
2022-09-04T20:06:30.654Z,101855.50
2022-09-04T20:11:40.688Z,101852.50
2022-09-04T20:16:53.146Z,101839.88
2022-09-04T20:22:07.140Z,101846.91
2022-09-04T20:27:15.542Z,101843.88
2022-09-04T20:32:22.487Z,101845.56
2022-09-04T20:37:39.386Z,101849.59
2022-09-04T20:42:50.134Z,101853.66
2022-09-04T20:52:50.936Z,101857.31
2022-09-04T20:54:29.045Z,101856.19
2022-09-04T21:03:08.986Z,101868.63
2022-09-04T21:05:21.306Z,101861.81
2022-09-04T21:10:37.833Z,101859.44
2022-09-04T21:16:35.230Z,101868.25
2022-09-04T21:21:57.883Z,101870.59
2022-09-04T21:27:09.378Z,101871.66
2022-09-04T21:32:44.926Z,101864.84
2022-09-04T21:38:03.160Z,101875.31
2022-09-04T21:44:04.269Z,101878.28
2022-09-04T21:49:13.294Z,101872.13
2022-09-04T21:57:08.937Z,101872.97
2022-09-04T22:02:35.108Z,101877.88
2022-09-04T22:06:03.990Z,101866.97
2022-09-04T22:13:41.543Z,101890.50
2022-09-04T22:17:03.191Z,101883.66
2022-09-04T22:22:40.780Z,101885.16
2022-09-04T22:28:07.391Z,101880.25
2022-09-04T22:33:19.686Z,101879.84
2022-09-04T22:38:42.956Z,101888.59
2022-09-04T22:44:24.827Z,101893.50
2022-09-04T22:49:57.402Z,101890.31
2022-09-04T22:55:38.867Z,101892.22
2022-09-04T23:01:29.821Z,101892.88
2022-09-04T23:10:46.015Z,101889.66
2022-09-04T23:13:59.327Z,101892.84
2022-09-04T23:20:00.683Z,101893.94
2022-09-04T23:26:42.224Z,101888.78
2022-09-04T23:30:04.816Z,101884.53
2022-09-04T23:35:36.959Z,101882.56
2022-09-04T23:40:51.907Z,101885.97
2022-09-04T23:46:24.398Z,101886.53
2022-09-04T23:51:36.362Z,101873.28
2022-09-04T23:56:46.297Z,101879.00
